<?xml version="1.0" encoding="UTF-8" standalone="no" ?>
<gpx xmlns="http://www.topografix.com/GPX/1/1" xmlns:xsi="http://www.w3.org/2001/XMLSchema-instance" xsi:schemaLocation="http://www.topografix.com/GPX/1/1 http://www.topografix.com/GPX/1/1/gpx.xsd" version="1.1" creator="VisuGPX - https://www.visugpx.com">
  <metadata>
    <name>Belle Plagne - Roche de Mio</name>
    <desc><![CDATA[Départ 07h30 pour 03h30 de ski de rando
Par CyTo & Alex]]></desc>
  </metadata>
  <trk>
    <name><![CDATA[28 févr. 2019 07:42:58]]></name>
    <trkseg>
      <trkpt lat="45.50948" lon="6.70798">
        <ele>2141.8</ele>
        <time>2019-02-28T06:42:59Z</time>
      </trkpt>
      <trkpt lat="45.50959" lon="6.708">
        <ele>2148.5</ele>
        <time>2019-02-28T06:44:22Z</time>
      </trkpt>
      <trkpt lat="45.51044" lon="6.70826">
        <ele>2159.57</ele>
        <time>2019-02-28T06:47:36Z</time>
      </trkpt>
      <trkpt lat="45.51053" lon="6.70818">
        <ele>2161.87</ele>
        <time>2019-02-28T06:48:20Z</time>
      </trkpt>
      <trkpt lat="45.51061" lon="6.7081">
        <ele>2162.08</ele>
        <time>2019-02-28T06:48:29Z</time>
      </trkpt>
      <trkpt lat="45.51068" lon="6.70801">
        <ele>2160.21</ele>
        <time>2019-02-28T06:48:44Z</time>
      </trkpt>
      <trkpt lat="45.51075" lon="6.70792">
        <ele>2163.89</ele>
        <time>2019-02-28T06:49:10Z</time>
      </trkpt>
      <trkpt lat="45.51085" lon="6.70789">
        <ele>2175.17</ele>
        <time>2019-02-28T06:49:21.544Z</time>
      </trkpt>
      <trkpt lat="45.5109" lon="6.70777">
        <ele>2165.89</ele>
        <time>2019-02-28T06:50:07Z</time>
      </trkpt>
      <trkpt lat="45.51354" lon="6.71205">
        <ele>2212.29</ele>
        <time>2019-02-28T07:13:41.244Z</time>
      </trkpt>
      <trkpt lat="45.5136" lon="6.71216">
        <ele>2252.2</ele>
        <time>2019-02-28T07:14:04Z</time>
      </trkpt>
      <trkpt lat="45.51362" lon="6.71229">
        <ele>2250.33</ele>
        <time>2019-02-28T07:14:20Z</time>
      </trkpt>
      <trkpt lat="45.51365" lon="6.71242">
        <ele>2249.03</ele>
        <time>2019-02-28T07:14:39Z</time>
      </trkpt>
      <trkpt lat="45.51362" lon="6.71364">
        <ele>2254.8</ele>
        <time>2019-02-28T07:19:22Z</time>
      </trkpt>
      <trkpt lat="45.5137" lon="6.71372">
        <ele>2270.56</ele>
        <time>2019-02-28T07:19:51Z</time>
      </trkpt>
      <trkpt lat="45.51379" lon="6.71376">
        <ele>2269.03</ele>
        <time>2019-02-28T07:20:12Z</time>
      </trkpt>
      <trkpt lat="45.51388" lon="6.7138">
        <ele>2269.75</ele>
        <time>2019-02-28T07:20:20Z</time>
      </trkpt>
      <trkpt lat="45.51396" lon="6.71386">
        <ele>2267.18</ele>
        <time>2019-02-28T07:20:33Z</time>
      </trkpt>
      <trkpt lat="45.51405" lon="6.71391">
        <ele>2270.03</ele>
        <time>2019-02-28T07:20:56Z</time>
      </trkpt>
      <trkpt lat="45.51413" lon="6.71396">
        <ele>2269.09</ele>
        <time>2019-02-28T07:21:18Z</time>
      </trkpt>
      <trkpt lat="45.51423" lon="6.71398">
        <ele>2273.9</ele>
        <time>2019-02-28T07:21:37Z</time>
      </trkpt>
      <trkpt lat="45.51432" lon="6.71403">
        <ele>2279.46</ele>
        <time>2019-02-28T07:21:54Z</time>
      </trkpt>
      <trkpt lat="45.5144" lon="6.71406">
        <ele>2282.79</ele>
        <time>2019-02-28T07:22:08Z</time>
      </trkpt>
      <trkpt lat="45.5145" lon="6.71409">
        <ele>2282.54</ele>
        <time>2019-02-28T07:22:23Z</time>
      </trkpt>
      <trkpt lat="45.51459" lon="6.71413">
        <ele>2287.43</ele>
        <time>2019-02-28T07:22:36Z</time>
      </trkpt>
      <trkpt lat="45.51465" lon="6.71423">
        <ele>2284.87</ele>
        <time>2019-02-28T07:22:48Z</time>
      </trkpt>
      <trkpt lat="45.51472" lon="6.71432">
        <ele>2286.42</ele>
        <time>2019-02-28T07:23:05Z</time>
      </trkpt>
      <trkpt lat="45.51476" lon="6.71444">
        <ele>2287.39</ele>
        <time>2019-02-28T07:23:18Z</time>
      </trkpt>
      <trkpt lat="45.51482" lon="6.71455">
        <ele>2292.66</ele>
        <time>2019-02-28T07:23:33Z</time>
      </trkpt>
      <trkpt lat="45.5149" lon="6.71462">
        <ele>2290.34</ele>
        <time>2019-02-28T07:23:49Z</time>
      </trkpt>
      <trkpt lat="45.51498" lon="6.71469">
        <ele>2292.96</ele>
        <time>2019-02-28T07:24:00Z</time>
      </trkpt>
      <trkpt lat="45.51507" lon="6.71472">
        <ele>2292.94</ele>
        <time>2019-02-28T07:24:13Z</time>
      </trkpt>
      <trkpt lat="45.51515" lon="6.71478">
        <ele>2301.03</ele>
        <time>2019-02-28T07:24:28Z</time>
      </trkpt>
      <trkpt lat="45.51524" lon="6.71482">
        <ele>2308.45</ele>
        <time>2019-02-28T07:24:41Z</time>
      </trkpt>
      <trkpt lat="45.51534" lon="6.71481">
        <ele>2304.51</ele>
        <time>2019-02-28T07:24:53Z</time>
      </trkpt>
      <trkpt lat="45.51543" lon="6.71481">
        <ele>2299.64</ele>
        <time>2019-02-28T07:25:07Z</time>
      </trkpt>
      <trkpt lat="45.51551" lon="6.71485">
        <ele>2280.69</ele>
        <time>2019-02-28T07:25:21Z</time>
      </trkpt>
      <trkpt lat="45.5156" lon="6.7149">
        <ele>2299.9</ele>
        <time>2019-02-28T07:25:46Z</time>
      </trkpt>
      <trkpt lat="45.51569" lon="6.71496">
        <ele>2304.44</ele>
        <time>2019-02-28T07:26:25Z</time>
      </trkpt>
      <trkpt lat="45.51577" lon="6.715">
        <ele>2310.27</ele>
        <time>2019-02-28T07:26:39Z</time>
      </trkpt>
      <trkpt lat="45.51586" lon="6.71507">
        <ele>2307.7</ele>
        <time>2019-02-28T07:26:48Z</time>
      </trkpt>
      <trkpt lat="45.51592" lon="6.71517">
        <ele>2308.91</ele>
        <time>2019-02-28T07:27:12Z</time>
      </trkpt>
      <trkpt lat="45.516" lon="6.71521">
        <ele>2322.54</ele>
        <time>2019-02-28T07:27:52Z</time>
      </trkpt>
      <trkpt lat="45.51606" lon="6.71531">
        <ele>2318.66</ele>
        <time>2019-02-28T07:28:03Z</time>
      </trkpt>
      <trkpt lat="45.51609" lon="6.71543">
        <ele>2317.08</ele>
        <time>2019-02-28T07:28:18Z</time>
      </trkpt>
      <trkpt lat="45.5161" lon="6.71557">
        <ele>2316.53</ele>
        <time>2019-02-28T07:28:31Z</time>
      </trkpt>
      <trkpt lat="45.5161" lon="6.7157">
        <ele>2320.89</ele>
        <time>2019-02-28T07:29:11Z</time>
      </trkpt>
      <trkpt lat="45.51692" lon="6.71666">
        <ele>2325.2</ele>
        <time>2019-02-28T07:34:59Z</time>
      </trkpt>
      <trkpt lat="45.51702" lon="6.71653">
        <ele>2329.69</ele>
        <time>2019-02-28T07:35:08Z</time>
      </trkpt>
      <trkpt lat="45.51711" lon="6.71656">
        <ele>2323.64</ele>
        <time>2019-02-28T07:35:16Z</time>
      </trkpt>
      <trkpt lat="45.5172" lon="6.71651">
        <ele>2324.1</ele>
        <time>2019-02-28T07:35:31Z</time>
      </trkpt>
      <trkpt lat="45.51729" lon="6.71651">
        <ele>2322.98</ele>
        <time>2019-02-28T07:35:53Z</time>
      </trkpt>
      <trkpt lat="45.51737" lon="6.71645">
        <ele>2328.65</ele>
        <time>2019-02-28T07:36:12Z</time>
      </trkpt>
      <trkpt lat="45.51746" lon="6.71648">
        <ele>2329.02</ele>
        <time>2019-02-28T07:36:26Z</time>
      </trkpt>
      <trkpt lat="45.51753" lon="6.71656">
        <ele>2328.05</ele>
        <time>2019-02-28T07:36:37Z</time>
      </trkpt>
      <trkpt lat="45.51762" lon="6.71661">
        <ele>2334.4</ele>
        <time>2019-02-28T07:36:48Z</time>
      </trkpt>
      <trkpt lat="45.5177" lon="6.71658">
        <ele>2320.44</ele>
        <time>2019-02-28T07:36:58Z</time>
      </trkpt>
      <trkpt lat="45.5178" lon="6.71655">
        <ele>2334.84</ele>
        <time>2019-02-28T07:37:08Z</time>
      </trkpt>
      <trkpt lat="45.51788" lon="6.71659">
        <ele>2336.4</ele>
        <time>2019-02-28T07:37:17Z</time>
      </trkpt>
      <trkpt lat="45.51797" lon="6.71664">
        <ele>2335.67</ele>
        <time>2019-02-28T07:37:28Z</time>
      </trkpt>
      <trkpt lat="45.51807" lon="6.71662">
        <ele>2334.49</ele>
        <time>2019-02-28T07:37:40Z</time>
      </trkpt>
      <trkpt lat="45.51816" lon="6.71661">
        <ele>2336.47</ele>
        <time>2019-02-28T07:38:03Z</time>
      </trkpt>
      <trkpt lat="45.51825" lon="6.7166">
        <ele>2337.98</ele>
        <time>2019-02-28T07:38:14Z</time>
      </trkpt>
      <trkpt lat="45.51835" lon="6.7166">
        <ele>2343.03</ele>
        <time>2019-02-28T07:38:32Z</time>
      </trkpt>
      <trkpt lat="45.51844" lon="6.71658">
        <ele>2340.83</ele>
        <time>2019-02-28T07:38:42Z</time>
      </trkpt>
      <trkpt lat="45.51854" lon="6.71656">
        <ele>2345.19</ele>
        <time>2019-02-28T07:38:54Z</time>
      </trkpt>
      <trkpt lat="45.51862" lon="6.71652">
        <ele>2345.71</ele>
        <time>2019-02-28T07:39:07Z</time>
      </trkpt>
      <trkpt lat="45.51872" lon="6.71652">
        <ele>2344.66</ele>
        <time>2019-02-28T07:39:23Z</time>
      </trkpt>
      <trkpt lat="45.5188" lon="6.71654">
        <ele>2346.65</ele>
        <time>2019-02-28T07:39:33Z</time>
      </trkpt>
      <trkpt lat="45.5189" lon="6.71654">
        <ele>2346.6</ele>
        <time>2019-02-28T07:39:44Z</time>
      </trkpt>
      <trkpt lat="45.51899" lon="6.71658">
        <ele>2345.85</ele>
        <time>2019-02-28T07:39:57Z</time>
      </trkpt>
      <trkpt lat="45.51908" lon="6.7166">
        <ele>2348.35</ele>
        <time>2019-02-28T07:40:18Z</time>
      </trkpt>
      <trkpt lat="45.51917" lon="6.71664">
        <ele>2349.28</ele>
        <time>2019-02-28T07:40:46Z</time>
      </trkpt>
      <trkpt lat="45.51926" lon="6.71667">
        <ele>2352.66</ele>
        <time>2019-02-28T07:41:00Z</time>
      </trkpt>
      <trkpt lat="45.51935" lon="6.71668">
        <ele>2356.87</ele>
        <time>2019-02-28T07:41:19Z</time>
      </trkpt>
      <trkpt lat="45.51944" lon="6.71673">
        <ele>2351.59</ele>
        <time>2019-02-28T07:41:43Z</time>
      </trkpt>
      <trkpt lat="45.51953" lon="6.71676">
        <ele>2349.69</ele>
        <time>2019-02-28T07:42:03Z</time>
      </trkpt>
      <trkpt lat="45.51957" lon="6.71688">
        <ele>2355.91</ele>
        <time>2019-02-28T07:42:46Z</time>
      </trkpt>
      <trkpt lat="45.51965" lon="6.71694">
        <ele>2357.14</ele>
        <time>2019-02-28T07:42:59Z</time>
      </trkpt>
      <trkpt lat="45.51969" lon="6.71705">
        <ele>2359.14</ele>
        <time>2019-02-28T07:50:16Z</time>
      </trkpt>
      <trkpt lat="45.51978" lon="6.71708">
        <ele>2355.88</ele>
        <time>2019-02-28T07:50:30Z</time>
      </trkpt>
      <trkpt lat="45.51988" lon="6.71712">
        <ele>2357.3</ele>
        <time>2019-02-28T07:50:46Z</time>
      </trkpt>
      <trkpt lat="45.51997" lon="6.71715">
        <ele>2356.08</ele>
        <time>2019-02-28T07:51:00Z</time>
      </trkpt>
      <trkpt lat="45.52008" lon="6.71715">
        <ele>2354.38</ele>
        <time>2019-02-28T07:51:07Z</time>
      </trkpt>
      <trkpt lat="45.52017" lon="6.71716">
        <ele>2358.53</ele>
        <time>2019-02-28T07:51:19Z</time>
      </trkpt>
      <trkpt lat="45.52026" lon="6.71712">
        <ele>2358.54</ele>
        <time>2019-02-28T07:51:33Z</time>
      </trkpt>
      <trkpt lat="45.52034" lon="6.71708">
        <ele>2358.33</ele>
        <time>2019-02-28T07:51:44Z</time>
      </trkpt>
      <trkpt lat="45.52044" lon="6.71704">
        <ele>2366.08</ele>
        <time>2019-02-28T07:52:15Z</time>
      </trkpt>
      <trkpt lat="45.52052" lon="6.71701">
        <ele>2364.92</ele>
        <time>2019-02-28T07:52:35Z</time>
      </trkpt>
      <trkpt lat="45.52061" lon="6.71696">
        <ele>2370.04</ele>
        <time>2019-02-28T07:52:51Z</time>
      </trkpt>
      <trkpt lat="45.52066" lon="6.71685">
        <ele>2375.24</ele>
        <time>2019-02-28T07:53:04Z</time>
      </trkpt>
      <trkpt lat="45.52073" lon="6.71675">
        <ele>2373.83</ele>
        <time>2019-02-28T07:53:17Z</time>
      </trkpt>
      <trkpt lat="45.52079" lon="6.71666">
        <ele>2371.23</ele>
        <time>2019-02-28T07:53:45Z</time>
      </trkpt>
      <trkpt lat="45.52081" lon="6.71679">
        <ele>2376.59</ele>
        <time>2019-02-28T07:55:46Z</time>
      </trkpt>
      <trkpt lat="45.52078" lon="6.71692">
        <ele>2378</ele>
        <time>2019-02-28T07:56:11Z</time>
      </trkpt>
      <trkpt lat="45.52076" lon="6.71705">
        <ele>2376.38</ele>
        <time>2019-02-28T07:56:30Z</time>
      </trkpt>
      <trkpt lat="45.52071" lon="6.71716">
        <ele>2360.63</ele>
        <time>2019-02-28T07:56:41Z</time>
      </trkpt>
      <trkpt lat="45.52066" lon="6.71728">
        <ele>2373.84</ele>
        <time>2019-02-28T07:56:54Z</time>
      </trkpt>
      <trkpt lat="45.5206" lon="6.71737">
        <ele>2375.62</ele>
        <time>2019-02-28T07:57:12Z</time>
      </trkpt>
      <trkpt lat="45.52053" lon="6.71745">
        <ele>2296.47</ele>
        <time>2019-02-28T07:57:25Z</time>
      </trkpt>
      <trkpt lat="45.52047" lon="6.71755">
        <ele>2366.15</ele>
        <time>2019-02-28T07:57:35Z</time>
      </trkpt>
      <trkpt lat="45.52042" lon="6.71765">
        <ele>2373.66</ele>
        <time>2019-02-28T07:57:47Z</time>
      </trkpt>
      <trkpt lat="45.52033" lon="6.71769">
        <ele>2377.35</ele>
        <time>2019-02-28T07:58:06Z</time>
      </trkpt>
      <trkpt lat="45.52026" lon="6.71778">
        <ele>2381.38</ele>
        <time>2019-02-28T07:58:25Z</time>
      </trkpt>
      <trkpt lat="45.52018" lon="6.71786">
        <ele>2378.5</ele>
        <time>2019-02-28T07:58:40Z</time>
      </trkpt>
      <trkpt lat="45.52008" lon="6.71787">
        <ele>2383.8</ele>
        <time>2019-02-28T07:58:54Z</time>
      </trkpt>
      <trkpt lat="45.51999" lon="6.71789">
        <ele>2386.36</ele>
        <time>2019-02-28T07:59:03Z</time>
      </trkpt>
      <trkpt lat="45.5199" lon="6.71792">
        <ele>2386.67</ele>
        <time>2019-02-28T07:59:14Z</time>
      </trkpt>
      <trkpt lat="45.5198" lon="6.71793">
        <ele>2385.33</ele>
        <time>2019-02-28T07:59:46Z</time>
      </trkpt>
      <trkpt lat="45.5197" lon="6.71792">
        <ele>2387.63</ele>
        <time>2019-02-28T07:59:58Z</time>
      </trkpt>
      <trkpt lat="45.5196" lon="6.71789">
        <ele>2390.23</ele>
        <time>2019-02-28T08:00:08Z</time>
      </trkpt>
      <trkpt lat="45.51951" lon="6.71787">
        <ele>2397.5</ele>
        <time>2019-02-28T08:00:18Z</time>
      </trkpt>
      <trkpt lat="45.51941" lon="6.71785">
        <ele>2400.6</ele>
        <time>2019-02-28T08:00:29Z</time>
      </trkpt>
      <trkpt lat="45.51931" lon="6.71782">
        <ele>2398.75</ele>
        <time>2019-02-28T08:00:39Z</time>
      </trkpt>
      <trkpt lat="45.51922" lon="6.71779">
        <ele>2400.45</ele>
        <time>2019-02-28T08:00:51Z</time>
      </trkpt>
      <trkpt lat="45.51912" lon="6.71778">
        <ele>2401.6</ele>
        <time>2019-02-28T08:01:11Z</time>
      </trkpt>
      <trkpt lat="45.51904" lon="6.71782">
        <ele>2402.24</ele>
        <time>2019-02-28T08:01:25Z</time>
      </trkpt>
      <trkpt lat="45.51894" lon="6.71779">
        <ele>2406.74</ele>
        <time>2019-02-28T08:01:41Z</time>
      </trkpt>
      <trkpt lat="45.51884" lon="6.7178">
        <ele>2408.41</ele>
        <time>2019-02-28T08:01:51Z</time>
      </trkpt>
      <trkpt lat="45.51875" lon="6.7178">
        <ele>2413.88</ele>
        <time>2019-02-28T08:02:06Z</time>
      </trkpt>
      <trkpt lat="45.51866" lon="6.7178">
        <ele>2411.61</ele>
        <time>2019-02-28T08:02:28Z</time>
      </trkpt>
      <trkpt lat="45.51859" lon="6.71789">
        <ele>2411.55</ele>
        <time>2019-02-28T08:02:42Z</time>
      </trkpt>
      <trkpt lat="45.51851" lon="6.71796">
        <ele>2410.64</ele>
        <time>2019-02-28T08:02:59Z</time>
      </trkpt>
      <trkpt lat="45.51842" lon="6.718">
        <ele>2411.79</ele>
        <time>2019-02-28T08:03:20Z</time>
      </trkpt>
      <trkpt lat="45.51833" lon="6.71805">
        <ele>2415.01</ele>
        <time>2019-02-28T08:03:35Z</time>
      </trkpt>
      <trkpt lat="45.51825" lon="6.71812">
        <ele>2417.23</ele>
        <time>2019-02-28T08:03:48Z</time>
      </trkpt>
      <trkpt lat="45.51815" lon="6.71814">
        <ele>2407.84</ele>
        <time>2019-02-28T08:04:02Z</time>
      </trkpt>
      <trkpt lat="45.51806" lon="6.71818">
        <ele>2415.57</ele>
        <time>2019-02-28T08:04:16Z</time>
      </trkpt>
      <trkpt lat="45.51797" lon="6.71823">
        <ele>2417.54</ele>
        <time>2019-02-28T08:04:27Z</time>
      </trkpt>
      <trkpt lat="45.51789" lon="6.71829">
        <ele>2419.38</ele>
        <time>2019-02-28T08:04:41Z</time>
      </trkpt>
      <trkpt lat="45.5178" lon="6.71834">
        <ele>2424.33</ele>
        <time>2019-02-28T08:05:00Z</time>
      </trkpt>
      <trkpt lat="45.51772" lon="6.7184">
        <ele>2420.76</ele>
        <time>2019-02-28T08:05:11Z</time>
      </trkpt>
      <trkpt lat="45.51763" lon="6.7184">
        <ele>2412.63</ele>
        <time>2019-02-28T08:05:41Z</time>
      </trkpt>
      <trkpt lat="45.51755" lon="6.71845">
        <ele>2401.65</ele>
        <time>2019-02-28T08:06:04Z</time>
      </trkpt>
      <trkpt lat="45.51748" lon="6.71855">
        <ele>2416.12</ele>
        <time>2019-02-28T08:06:15Z</time>
      </trkpt>
      <trkpt lat="45.51743" lon="6.71866">
        <ele>2425.08</ele>
        <time>2019-02-28T08:06:26Z</time>
      </trkpt>
      <trkpt lat="45.51737" lon="6.71875">
        <ele>2426.21</ele>
        <time>2019-02-28T08:06:56Z</time>
      </trkpt>
      <trkpt lat="45.51728" lon="6.71882">
        <ele>2428.69</ele>
        <time>2019-02-28T08:07:08Z</time>
      </trkpt>
      <trkpt lat="45.51722" lon="6.71892">
        <ele>2426.29</ele>
        <time>2019-02-28T08:07:21Z</time>
      </trkpt>
      <trkpt lat="45.51716" lon="6.71882">
        <ele>2429.44</ele>
        <time>2019-02-28T08:08:31Z</time>
      </trkpt>
      <trkpt lat="45.51709" lon="6.71892">
        <ele>2431.11</ele>
        <time>2019-02-28T08:10:50Z</time>
      </trkpt>
      <trkpt lat="45.517" lon="6.71893">
        <ele>2405.34</ele>
        <time>2019-02-28T08:11:04Z</time>
      </trkpt>
      <trkpt lat="45.51691" lon="6.71897">
        <ele>2430.29</ele>
        <time>2019-02-28T08:11:17Z</time>
      </trkpt>
      <trkpt lat="45.51682" lon="6.719">
        <ele>2430.06</ele>
        <time>2019-02-28T08:11:31Z</time>
      </trkpt>
      <trkpt lat="45.51674" lon="6.71906">
        <ele>2430.49</ele>
        <time>2019-02-28T08:11:44Z</time>
      </trkpt>
      <trkpt lat="45.51666" lon="6.71911">
        <ele>2427.98</ele>
        <time>2019-02-28T08:12:00Z</time>
      </trkpt>
      <trkpt lat="45.51658" lon="6.71918">
        <ele>2425.2</ele>
        <time>2019-02-28T08:12:32Z</time>
      </trkpt>
      <trkpt lat="45.51649" lon="6.71924">
        <ele>2422.68</ele>
        <time>2019-02-28T08:12:52Z</time>
      </trkpt>
      <trkpt lat="45.51644" lon="6.71935">
        <ele>2422.49</ele>
        <time>2019-02-28T08:13:07Z</time>
      </trkpt>
      <trkpt lat="45.51637" lon="6.71945">
        <ele>2421.74</ele>
        <time>2019-02-28T08:13:17Z</time>
      </trkpt>
      <trkpt lat="45.51628" lon="6.71954">
        <ele>2417.44</ele>
        <time>2019-02-28T08:13:32Z</time>
      </trkpt>
      <trkpt lat="45.51619" lon="6.7196">
        <ele>2413.56</ele>
        <time>2019-02-28T08:13:37Z</time>
      </trkpt>
      <trkpt lat="45.51612" lon="6.71968">
        <ele>2411.43</ele>
        <time>2019-02-28T08:13:48Z</time>
      </trkpt>
      <trkpt lat="45.51605" lon="6.71976">
        <ele>2412.16</ele>
        <time>2019-02-28T08:14:01Z</time>
      </trkpt>
      <trkpt lat="45.51596" lon="6.71979">
        <ele>2407.96</ele>
        <time>2019-02-28T08:14:19Z</time>
      </trkpt>
      <trkpt lat="45.51587" lon="6.71985">
        <ele>2404.54</ele>
        <time>2019-02-28T08:14:39Z</time>
      </trkpt>
      <trkpt lat="45.51585" lon="6.71997">
        <ele>2402.7</ele>
        <time>2019-02-28T08:14:57Z</time>
      </trkpt>
      <trkpt lat="45.5158" lon="6.72009">
        <ele>2398.87</ele>
        <time>2019-02-28T08:15:05Z</time>
      </trkpt>
      <trkpt lat="45.51577" lon="6.72022">
        <ele>2397.44</ele>
        <time>2019-02-28T08:15:12Z</time>
      </trkpt>
      <trkpt lat="45.51572" lon="6.72034">
        <ele>2400.85</ele>
        <time>2019-02-28T08:15:19Z</time>
      </trkpt>
      <trkpt lat="45.51571" lon="6.72047">
        <ele>2397.46</ele>
        <time>2019-02-28T08:15:29Z</time>
      </trkpt>
      <trkpt lat="45.5157" lon="6.72061">
        <ele>2395.63</ele>
        <time>2019-02-28T08:15:48Z</time>
      </trkpt>
      <trkpt lat="45.51571" lon="6.72075">
        <ele>2395.83</ele>
        <time>2019-02-28T08:15:53Z</time>
      </trkpt>
      <trkpt lat="45.51572" lon="6.7209">
        <ele>2394.59</ele>
        <time>2019-02-28T08:15:57Z</time>
      </trkpt>
      <trkpt lat="45.51579" lon="6.72105">
        <ele>2393.39</ele>
        <time>2019-02-28T08:16:01Z</time>
      </trkpt>
      <trkpt lat="45.51584" lon="6.72116">
        <ele>2394.15</ele>
        <time>2019-02-28T08:16:08Z</time>
      </trkpt>
      <trkpt lat="45.5159" lon="6.72128">
        <ele>2395.15</ele>
        <time>2019-02-28T08:16:18Z</time>
      </trkpt>
      <trkpt lat="45.51594" lon="6.7214">
        <ele>2397.44</ele>
        <time>2019-02-28T08:16:24Z</time>
      </trkpt>
      <trkpt lat="45.51595" lon="6.72154">
        <ele>2399.02</ele>
        <time>2019-02-28T08:16:34Z</time>
      </trkpt>
      <trkpt lat="45.51595" lon="6.72167">
        <ele>2402.8</ele>
        <time>2019-02-28T08:16:49Z</time>
      </trkpt>
      <trkpt lat="45.51592" lon="6.72181">
        <ele>2400.28</ele>
        <time>2019-02-28T08:17:03Z</time>
      </trkpt>
      <trkpt lat="45.51588" lon="6.72193">
        <ele>2398.85</ele>
        <time>2019-02-28T08:17:10Z</time>
      </trkpt>
      <trkpt lat="45.51582" lon="6.72205">
        <ele>2397.95</ele>
        <time>2019-02-28T08:17:14Z</time>
      </trkpt>
      <trkpt lat="45.51579" lon="6.7222">
        <ele>2396.48</ele>
        <time>2019-02-28T08:17:19Z</time>
      </trkpt>
      <trkpt lat="45.51575" lon="6.72232">
        <ele>2396.09</ele>
        <time>2019-02-28T08:17:23Z</time>
      </trkpt>
      <trkpt lat="45.51574" lon="6.72247">
        <ele>2394.85</ele>
        <time>2019-02-28T08:17:29Z</time>
      </trkpt>
      <trkpt lat="45.5158" lon="6.72257">
        <ele>2394.37</ele>
        <time>2019-02-28T08:17:45Z</time>
      </trkpt>
      <trkpt lat="45.51575" lon="6.72268">
        <ele>2393.74</ele>
        <time>2019-02-28T08:17:59Z</time>
      </trkpt>
      <trkpt lat="45.51085" lon="6.72518">
        <ele>2244.57</ele>
        <time>2019-02-28T08:31:31Z</time>
      </trkpt>
      <trkpt lat="45.51105" lon="6.72542">
        <ele>2241.03</ele>
        <time>2019-02-28T08:45:56Z</time>
      </trkpt>
      <trkpt lat="45.51095" lon="6.72533">
        <ele>2248.16</ele>
        <time>2019-02-28T08:45:59Z</time>
      </trkpt>
      <trkpt lat="45.51087" lon="6.72524">
        <ele>2247.26</ele>
        <time>2019-02-28T08:46:03Z</time>
      </trkpt>
      <trkpt lat="45.51081" lon="6.72509">
        <ele>2252.94</ele>
        <time>2019-02-28T08:46:10Z</time>
      </trkpt>
      <trkpt lat="45.51075" lon="6.72495">
        <ele>2252.08</ele>
        <time>2019-02-28T08:46:15Z</time>
      </trkpt>
      <trkpt lat="45.51069" lon="6.72483">
        <ele>2252.89</ele>
        <time>2019-02-28T08:46:20Z</time>
      </trkpt>
      <trkpt lat="45.51063" lon="6.72473">
        <ele>2253.56</ele>
        <time>2019-02-28T08:46:32Z</time>
      </trkpt>
      <trkpt lat="45.51053" lon="6.72473">
        <ele>2253.36</ele>
        <time>2019-02-28T08:46:43Z</time>
      </trkpt>
      <trkpt lat="45.51045" lon="6.7247">
        <ele>2252.96</ele>
        <time>2019-02-28T08:46:52Z</time>
      </trkpt>
      <trkpt lat="45.50392" lon="6.72682">
        <ele>2448.39</ele>
        <time>2019-02-28T09:19:18Z</time>
      </trkpt>
      <trkpt lat="45.50383" lon="6.72683">
        <ele>2460.71</ele>
        <time>2019-02-28T09:19:52Z</time>
      </trkpt>
      <trkpt lat="45.5038" lon="6.72695">
        <ele>2474.1</ele>
        <time>2019-02-28T09:21:03Z</time>
      </trkpt>
      <trkpt lat="45.50376" lon="6.72709">
        <ele>2474.06</ele>
        <time>2019-02-28T09:22:21Z</time>
      </trkpt>
      <trkpt lat="45.50367" lon="6.72711">
        <ele>2474.06</ele>
        <time>2019-02-28T09:25:47Z</time>
      </trkpt>
      <trkpt lat="45.50357" lon="6.72713">
        <ele>2472.6</ele>
        <time>2019-02-28T09:26:00Z</time>
      </trkpt>
      <trkpt lat="45.50352" lon="6.72724">
        <ele>2474.84</ele>
        <time>2019-02-28T09:26:17Z</time>
      </trkpt>
      <trkpt lat="45.50346" lon="6.72734">
        <ele>2479.8</ele>
        <time>2019-02-28T09:26:42Z</time>
      </trkpt>
      <trkpt lat="45.5034" lon="6.72743">
        <ele>2479.38</ele>
        <time>2019-02-28T09:26:58Z</time>
      </trkpt>
      <trkpt lat="45.5033" lon="6.72747">
        <ele>2480</ele>
        <time>2019-02-28T09:27:13Z</time>
      </trkpt>
      <trkpt lat="45.5032" lon="6.72749">
        <ele>2485.74</ele>
        <time>2019-02-28T09:27:26Z</time>
      </trkpt>
      <trkpt lat="45.50312" lon="6.72746">
        <ele>2486.18</ele>
        <time>2019-02-28T09:28:42Z</time>
      </trkpt>
      <trkpt lat="45.50303" lon="6.72752">
        <ele>2482.75</ele>
        <time>2019-02-28T09:29:32Z</time>
      </trkpt>
      <trkpt lat="45.49837" lon="6.72901">
        <ele>2612.1</ele>
        <time>2019-02-28T09:47:51Z</time>
      </trkpt>
      <trkpt lat="45.49846" lon="6.72891">
        <ele>2612.35</ele>
        <time>2019-02-28T09:47:54Z</time>
      </trkpt>
      <trkpt lat="45.49685" lon="6.72917">
        <ele>2665.62</ele>
        <time>2019-02-28T10:01:21Z</time>
      </trkpt>
      <trkpt lat="45.49689" lon="6.72929">
        <ele>2661.82</ele>
        <time>2019-02-28T10:01:57Z</time>
      </trkpt>
      <trkpt lat="45.49692" lon="6.72942">
        <ele>2658.05</ele>
        <time>2019-02-28T10:02:09Z</time>
      </trkpt>
      <trkpt lat="45.49695" lon="6.72954">
        <ele>2657.9</ele>
        <time>2019-02-28T10:02:25Z</time>
      </trkpt>
      <trkpt lat="45.49697" lon="6.72966">
        <ele>2659.88</ele>
        <time>2019-02-28T10:02:45Z</time>
      </trkpt>
      <trkpt lat="45.49698" lon="6.7298">
        <ele>2660.52</ele>
        <time>2019-02-28T10:02:57Z</time>
      </trkpt>
      <trkpt lat="45.497" lon="6.72993">
        <ele>2661.41</ele>
        <time>2019-02-28T10:03:15Z</time>
      </trkpt>
      <trkpt lat="45.49703" lon="6.73005">
        <ele>2662.68</ele>
        <time>2019-02-28T10:03:27Z</time>
      </trkpt>
      <trkpt lat="45.49707" lon="6.73017">
        <ele>2664.07</ele>
        <time>2019-02-28T10:03:37Z</time>
      </trkpt>
      <trkpt lat="45.49708" lon="6.7303">
        <ele>2620.13</ele>
        <time>2019-02-28T10:03:49Z</time>
      </trkpt>
      <trkpt lat="45.49709" lon="6.73043">
        <ele>2661.08</ele>
        <time>2019-02-28T10:04:05Z</time>
      </trkpt>
      <trkpt lat="45.49708" lon="6.73056">
        <ele>2664.58</ele>
        <time>2019-02-28T10:04:20Z</time>
      </trkpt>
      <trkpt lat="45.49711" lon="6.73069">
        <ele>2663.76</ele>
        <time>2019-02-28T10:04:32Z</time>
      </trkpt>
      <trkpt lat="45.49711" lon="6.73082">
        <ele>2673.01</ele>
        <time>2019-02-28T10:04:46Z</time>
      </trkpt>
      <trkpt lat="45.49706" lon="6.73094">
        <ele>2680.32</ele>
        <time>2019-02-28T10:04:55Z</time>
      </trkpt>
      <trkpt lat="45.49702" lon="6.73105">
        <ele>2686.82</ele>
        <time>2019-02-28T10:05:07Z</time>
      </trkpt>
      <trkpt lat="45.49699" lon="6.73118">
        <ele>2689.93</ele>
        <time>2019-02-28T10:05:25Z</time>
      </trkpt>
      <trkpt lat="45.49696" lon="6.73131">
        <ele>2687.27</ele>
        <time>2019-02-28T10:05:42Z</time>
      </trkpt>
      <trkpt lat="45.49694" lon="6.73144">
        <ele>2694</ele>
        <time>2019-02-28T10:05:53Z</time>
      </trkpt>
      <trkpt lat="45.49694" lon="6.73157">
        <ele>2697.95</ele>
        <time>2019-02-28T10:06:06Z</time>
      </trkpt>
      <trkpt lat="45.49694" lon="6.7317">
        <ele>2694.15</ele>
        <time>2019-02-28T10:06:27Z</time>
      </trkpt>
      <trkpt lat="45.49691" lon="6.73183">
        <ele>2647.22</ele>
        <time>2019-02-28T10:06:42Z</time>
      </trkpt>
      <trkpt lat="45.49691" lon="6.73196">
        <ele>2685.15</ele>
        <time>2019-02-28T10:06:53Z</time>
      </trkpt>
      <trkpt lat="45.49689" lon="6.73213">
        <ele>2708.86</ele>
        <time>2019-02-28T10:08:42Z</time>
      </trkpt>
      <trkpt lat="45.49686" lon="6.73225">
        <ele>2705.15</ele>
        <time>2019-02-28T10:09:04Z</time>
      </trkpt>
      <trkpt lat="45.49685" lon="6.73238">
        <ele>2694.17</ele>
        <time>2019-02-28T10:09:55Z</time>
      </trkpt>
    </trkseg>
  </trk>
</gpx>